(°C)
11°
10°
10°
10°
10°
10°
(°C)
SSV
SV
SV
SV
SV
SSV
SSV
(km/h)
10-32
10-28
12-28
11-27
11-29
11-30
11-32
(mm)
0
0
0
0
0
0
0
(%)
24
11
5
3
2
0
0

Elevația soarelui

/ -10.6°
sun-icon
UV 3
03:09
20:10
Al doilea pătrar (338°)
02:28
17:56

METAR pentru 55.61°N 49.28°E (UWKD)

Ora Condiții Temperatură/
Punctul de rouă
Vânt Vizibilitate Vremea Nori Presiune Schimbă Brut
VFR 11°C / 8°C 220º variable 200º to 260º 8kt >10km - Clouds and Visibility OK 1003 No Significant change. Runway 29: Wet or puddles, with <1mm, friction coefficient 0.50. UWKD 281830Z 22004MPS 200V260 CAVOK 11/08 Q1003 R29/2/0050 NOSIG RMK QFE741/0989
VFR 11°C / 9°C 230º 6kt >10km - Clouds and Visibility OK 1003 No Significant change. Runway 29: Wet or puddles, with <1mm, friction coefficient 0.50. UWKD 281800Z 23003MPS CAVOK 11/09 Q1003 R29/2/0050 NOSIG RMK QFE741/0988
VFR 11°C / 10°C 220º 6kt >10km - Clouds and Visibility OK 1003 No Significant change. Runway 29: Wet or puddles, with <1mm, friction coefficient 0.50. UWKD 281730Z 22003MPS CAVOK 11/10 Q1003 R29/2/0050 NOSIG RMK QFE741/0988
VFR 12°C / 10°C 200º variable 180º to 240º 4kt 9000m Light Showers Rain 3.00mm precipitation Vertical Visibility of 0ft. 1003 No Significant change. Runway 29: Wet or puddles, with <1mm, friction coefficient 0.60. UWKD 281700Z 20002MPS 180V240 9000 -SHRA BKN048CB 12/10 Q1003 R29/2/0060 NOSIG RMK QFE741/0988
MVFR 12°C / 9°C 230º 4kt >10km - Broken Clouds 2400ft 1003 No Significant change. Runway 29: Wet or puddles, with <1mm, friction coefficient 0.60. UWKD 281630Z 23002MPS 9999 BKN024 12/09 Q1003 R29/2/0060 NOSIG RMK QFE741/0988
MVFR 13°C / 10°C 230º variable 200º to 260º 4kt >10km - Broken Clouds 2100ft 1002 No Significant change. Runway 29: Wet or puddles, with <1mm, friction coefficient 0.60. UWKD 281600Z 23002MPS 200V260 9999 BKN021 13/10 Q1002 R29/2/0060 NOSIG RMK QFE741/0988
MVFR 13°C / 10°C 250º variable 200º to 270º 8kt >10km - Broken Clouds 1700ft 1002 No Significant change. Runway 29: Wet or puddles, with <1mm, friction coefficient 0.50. UWKD 281530Z 25004MPS 200V270 9999 BKN017 13/10 Q1002 R29/2/0050 NOSIG RMK QFE741/0988
MVFR 13°C / 10°C 240º variable 210º to 270º 10kt >10km - Broken Clouds 1600ft 1002 No Significant change. Runway 29: Wet or puddles, with <1mm, friction coefficient 0.50. UWKD 281500Z 24005MPS 210V270 9999 BKN016 13/10 Q1002 R29/2/0050 NOSIG RMK QFE740/0987
MVFR 13°C / 10°C 240º variable 190º to 260º 8kt >10km - Broken Clouds 1400ft 1002 No Significant change. Runway 29: Wet or puddles, with <1mm, friction coefficient 0.50. UWKD 281430Z 24004MPS 190V260 9999 BKN014 13/10 Q1002 R29/2/0050 NOSIG RMK QFE740/0987
MVFR 13°C / 11°C 240º 10kt >10km - Broken Clouds 1400ft 1001 No Significant change. Runway 11: Wet or puddles, with <1mm, friction coefficient 0.50. UWKD 281400Z 24005MPS 9999 BKN014CB 13/11 Q1001 R11/2/0050 NOSIG RMK QFE741/0988
MVFR 12°C / 11°C 210º variable 180º to 240º 10kt >10km - Broken Clouds 1500ft 1001 No Significant change. Runway 11: Wet or puddles, with <1mm, friction coefficient 0.50. UWKD 281330Z 21005MPS 180V240 9999 BKN015CB 12/11 Q1001 R11/2/0050 NOSIG RMK QFE741/0988
IFR 12°C / 11°C 200º 8kt >10km - Broken Clouds 700ft 1001 No Significant change. Runway 11: Wet or puddles, with <1mm, friction coefficient 0.50. UWKD 281300Z 20004MPS 9999 BKN007CB 12/11 Q1001 R11/2/0050 NOSIG RMK QFE741/0988
IFR 11°C / 10°C 180º 12kt 9000m Light Showers Rain 3.00mm precipitation Vertical Visibility of 0ft. 1001 No Significant change. Runway 11: Wet or puddles, with <1mm, friction coefficient 0.50. UWKD 281230Z 18006MPS 9000 -SHRA BKN007CB 11/10 Q1001 R11/2/0050 NOSIG RMK QFE741/0988
IFR 11°C / 10°C 140º 12kt 4100m Light Showers Rain 3.00mm precipitation Vertical Visibility of 0ft. 1002 No Significant change. Runway 11: Wet or puddles, with <1mm, friction coefficient 0.50. UWKD 281200Z 14006MPS 4100 -SHRA BKN010CB 11/10 Q1002 R11/2/0050 NOSIG RMK QFE741/0989
IFR 11°C / 9°C 140º 10kt 5000m Light Showers Rain 3.00mm precipitation Vertical Visibility of 0ft. 1002 No Significant change. Runway 11: Wet or puddles, with <1mm, friction coefficient 0.50. UWKD 281130Z 14005MPS 5000 -SHRA BKN006CB 11/09 Q1002 R11/2/0050 NOSIG RMK QFE742/0989
MVFR 10°C / 9°C 160º 10kt 9000m Light Showers Rain 3.00mm precipitation Vertical Visibility of 0ft. 1003 No Significant change. Runway 11: Wet or puddles, with <1mm, friction coefficient 0.50. UWKD 281100Z 16005MPS 9000 -SHRA BKN016CB 10/09 Q1003 R11/2/0050 NOSIG RMK QFE742/0989
IFR 11°C / 9°C 160º 10kt 9000m Light Showers Rain 3.00mm precipitation Vertical Visibility of 0ft. 1003 No Significant change. Runway 29: Wet or puddles, with <1mm, friction coefficient 0.50. UWKD 281030Z 16005MPS 9000 -SHRA BKN007CB 11/09 Q1003 R29/2/0050 NOSIG RMK QFE741/0989
VFR 11°C / 8°C 180º 8kt >10km Light Showers Rain 3.00mm precipitation Vertical Visibility of 0ft. 1004 No Significant change. Runway 29: Wet or puddles, with <1mm, friction coefficient 0.50. UWKD 281000Z 18004MPS 9999 -SHRA BKN043CB 11/08 Q1004 R29/2/0050 NOSIG RMK QFE742/0989
MVFR 11°C / 9°C 210º variable 170º to 230º 12kt 9000m Light Showers Rain 3.00mm precipitation Vertical Visibility of 0ft. 1004 No Significant change. Runway 29: Wet or puddles, with <1mm, friction coefficient 0.50. UWKD 280930Z 21006MPS 170V230 9000 -SHRA BKN012CB 11/09 Q1004 R29/2/0050 NOSIG RMK QFE742/0990
VFR 11°C / 9°C 230º variable 170º to 260º 10kt >10km Light Showers Rain 3.00mm precipitation Vertical Visibility of 0ft. 1004 No Significant change. Runway 29: Wet or puddles, with <1mm, friction coefficient 0.50. UWKD 280900Z 23005MPS 170V260 9999 -SHRA BKN050CB 11/09 Q1004 R29/2/0050 NOSIG RMK QFE742/0989
MVFR 12°C / 8°C 230º 14kt Gust 23kt >10km Light Showers Rain 3.00mm precipitation Vertical Visibility of 0ft. 1004 No Significant change UWKD 280830Z 23007G12MPS 9999 -SHRA BKN030CB 12/08 Q1004 R29/CLRD70 NOSIG RMK QFE742/0989
MVFR 13°C / 8°C 220º 12kt Gust 21kt >10km - Broken Clouds 2400ft 1004 No Significant change UWKD 280800Z 22006G11MPS 9999 BKN024 13/08 Q1004 R29/70D NOSIG RMK QFE742/0989
VFR 14°C / 9°C 220º variable 170º to 240º 14kt >10km - Broken Clouds 3300ft 1004 No Significant change UWKD 280730Z 22007MPS 170V240 9999 BKN033 14/09 Q1004 R29/70D NOSIG RMK QFE742/0989
MVFR 14°C / 9°C 220º 12kt >10km - Broken Clouds 2000ft 1003 No Significant change UWKD 280700Z 22006MPS 9999 BKN020 14/09 Q1003 R29/CLRD70 NOSIG RMK QFE741/0989

VFR

11°C / 8°C

[Mai mult]
Vânt 220º variable 200º to 260º 8kt
Vizibilitate >10km
Vremea -
Nori Clouds and Visibility OK
Presiune 1003
Schimbă No Significant change. Runway 29: Wet or puddles, with <1mm, friction coefficient 0.50.
Brut UWKD 281830Z 22004MPS 200V260 CAVOK 11/08 Q1003 R29/2/0050 NOSIG RMK QFE741/0989

VFR

11°C / 9°C

[Mai mult]
Vânt 230º 6kt
Vizibilitate >10km
Vremea -
Nori Clouds and Visibility OK
Presiune 1003
Schimbă No Significant change. Runway 29: Wet or puddles, with <1mm, friction coefficient 0.50.
Brut UWKD 281800Z 23003MPS CAVOK 11/09 Q1003 R29/2/0050 NOSIG RMK QFE741/0988

VFR

11°C / 10°C

[Mai mult]
Vânt 220º 6kt
Vizibilitate >10km
Vremea -
Nori Clouds and Visibility OK
Presiune 1003
Schimbă No Significant change. Runway 29: Wet or puddles, with <1mm, friction coefficient 0.50.
Brut UWKD 281730Z 22003MPS CAVOK 11/10 Q1003 R29/2/0050 NOSIG RMK QFE741/0988

VFR

12°C / 10°C

[Mai mult]
Vânt 200º variable 180º to 240º 4kt
Vizibilitate 9000m
Vremea Light Showers Rain 3.00mm precipitation
Nori Vertical Visibility of 0ft.
Presiune 1003
Schimbă No Significant change. Runway 29: Wet or puddles, with <1mm, friction coefficient 0.60.
Brut UWKD 281700Z 20002MPS 180V240 9000 -SHRA BKN048CB 12/10 Q1003 R29/2/0060 NOSIG RMK QFE741/0988

MVFR

12°C / 9°C

[Mai mult]
Vânt 230º 4kt
Vizibilitate >10km
Vremea -
Nori Broken Clouds 2400ft
Presiune 1003
Schimbă No Significant change. Runway 29: Wet or puddles, with <1mm, friction coefficient 0.60.
Brut UWKD 281630Z 23002MPS 9999 BKN024 12/09 Q1003 R29/2/0060 NOSIG RMK QFE741/0988

MVFR

13°C / 10°C

[Mai mult]
Vânt 230º variable 200º to 260º 4kt
Vizibilitate >10km
Vremea -
Nori Broken Clouds 2100ft
Presiune 1002
Schimbă No Significant change. Runway 29: Wet or puddles, with <1mm, friction coefficient 0.60.
Brut UWKD 281600Z 23002MPS 200V260 9999 BKN021 13/10 Q1002 R29/2/0060 NOSIG RMK QFE741/0988

MVFR

13°C / 10°C

[Mai mult]
Vânt 250º variable 200º to 270º 8kt
Vizibilitate >10km
Vremea -
Nori Broken Clouds 1700ft
Presiune 1002
Schimbă No Significant change. Runway 29: Wet or puddles, with <1mm, friction coefficient 0.50.
Brut UWKD 281530Z 25004MPS 200V270 9999 BKN017 13/10 Q1002 R29/2/0050 NOSIG RMK QFE741/0988

MVFR

13°C / 10°C

[Mai mult]
Vânt 240º variable 210º to 270º 10kt
Vizibilitate >10km
Vremea -
Nori Broken Clouds 1600ft
Presiune 1002
Schimbă No Significant change. Runway 29: Wet or puddles, with <1mm, friction coefficient 0.50.
Brut UWKD 281500Z 24005MPS 210V270 9999 BKN016 13/10 Q1002 R29/2/0050 NOSIG RMK QFE740/0987

MVFR

13°C / 10°C

[Mai mult]
Vânt 240º variable 190º to 260º 8kt
Vizibilitate >10km
Vremea -
Nori Broken Clouds 1400ft
Presiune 1002
Schimbă No Significant change. Runway 29: Wet or puddles, with <1mm, friction coefficient 0.50.
Brut UWKD 281430Z 24004MPS 190V260 9999 BKN014 13/10 Q1002 R29/2/0050 NOSIG RMK QFE740/0987

MVFR

13°C / 11°C

[Mai mult]
Vânt 240º 10kt
Vizibilitate >10km
Vremea -
Nori Broken Clouds 1400ft
Presiune 1001
Schimbă No Significant change. Runway 11: Wet or puddles, with <1mm, friction coefficient 0.50.
Brut UWKD 281400Z 24005MPS 9999 BKN014CB 13/11 Q1001 R11/2/0050 NOSIG RMK QFE741/0988

MVFR

12°C / 11°C

[Mai mult]
Vânt 210º variable 180º to 240º 10kt
Vizibilitate >10km
Vremea -
Nori Broken Clouds 1500ft
Presiune 1001
Schimbă No Significant change. Runway 11: Wet or puddles, with <1mm, friction coefficient 0.50.
Brut UWKD 281330Z 21005MPS 180V240 9999 BKN015CB 12/11 Q1001 R11/2/0050 NOSIG RMK QFE741/0988

IFR

12°C / 11°C

[Mai mult]
Vânt 200º 8kt
Vizibilitate >10km
Vremea -
Nori Broken Clouds 700ft
Presiune 1001
Schimbă No Significant change. Runway 11: Wet or puddles, with <1mm, friction coefficient 0.50.
Brut UWKD 281300Z 20004MPS 9999 BKN007CB 12/11 Q1001 R11/2/0050 NOSIG RMK QFE741/0988

IFR

11°C / 10°C

[Mai mult]
Vânt 180º 12kt
Vizibilitate 9000m
Vremea Light Showers Rain 3.00mm precipitation
Nori Vertical Visibility of 0ft.
Presiune 1001
Schimbă No Significant change. Runway 11: Wet or puddles, with <1mm, friction coefficient 0.50.
Brut UWKD 281230Z 18006MPS 9000 -SHRA BKN007CB 11/10 Q1001 R11/2/0050 NOSIG RMK QFE741/0988

IFR

11°C / 10°C

[Mai mult]
Vânt 140º 12kt
Vizibilitate 4100m
Vremea Light Showers Rain 3.00mm precipitation
Nori Vertical Visibility of 0ft.
Presiune 1002
Schimbă No Significant change. Runway 11: Wet or puddles, with <1mm, friction coefficient 0.50.
Brut UWKD 281200Z 14006MPS 4100 -SHRA BKN010CB 11/10 Q1002 R11/2/0050 NOSIG RMK QFE741/0989

IFR

11°C / 9°C

[Mai mult]
Vânt 140º 10kt
Vizibilitate 5000m
Vremea Light Showers Rain 3.00mm precipitation
Nori Vertical Visibility of 0ft.
Presiune 1002
Schimbă No Significant change. Runway 11: Wet or puddles, with <1mm, friction coefficient 0.50.
Brut UWKD 281130Z 14005MPS 5000 -SHRA BKN006CB 11/09 Q1002 R11/2/0050 NOSIG RMK QFE742/0989

MVFR

10°C / 9°C

[Mai mult]
Vânt 160º 10kt
Vizibilitate 9000m
Vremea Light Showers Rain 3.00mm precipitation
Nori Vertical Visibility of 0ft.
Presiune 1003
Schimbă No Significant change. Runway 11: Wet or puddles, with <1mm, friction coefficient 0.50.
Brut UWKD 281100Z 16005MPS 9000 -SHRA BKN016CB 10/09 Q1003 R11/2/0050 NOSIG RMK QFE742/0989

IFR

11°C / 9°C

[Mai mult]
Vânt 160º 10kt
Vizibilitate 9000m
Vremea Light Showers Rain 3.00mm precipitation
Nori Vertical Visibility of 0ft.
Presiune 1003
Schimbă No Significant change. Runway 29: Wet or puddles, with <1mm, friction coefficient 0.50.
Brut UWKD 281030Z 16005MPS 9000 -SHRA BKN007CB 11/09 Q1003 R29/2/0050 NOSIG RMK QFE741/0989

VFR

11°C / 8°C

[Mai mult]
Vânt 180º 8kt
Vizibilitate >10km
Vremea Light Showers Rain 3.00mm precipitation
Nori Vertical Visibility of 0ft.
Presiune 1004
Schimbă No Significant change. Runway 29: Wet or puddles, with <1mm, friction coefficient 0.50.
Brut UWKD 281000Z 18004MPS 9999 -SHRA BKN043CB 11/08 Q1004 R29/2/0050 NOSIG RMK QFE742/0989

MVFR

11°C / 9°C

[Mai mult]
Vânt 210º variable 170º to 230º 12kt
Vizibilitate 9000m
Vremea Light Showers Rain 3.00mm precipitation
Nori Vertical Visibility of 0ft.
Presiune 1004
Schimbă No Significant change. Runway 29: Wet or puddles, with <1mm, friction coefficient 0.50.
Brut UWKD 280930Z 21006MPS 170V230 9000 -SHRA BKN012CB 11/09 Q1004 R29/2/0050 NOSIG RMK QFE742/0990

VFR

11°C / 9°C

[Mai mult]
Vânt 230º variable 170º to 260º 10kt
Vizibilitate >10km
Vremea Light Showers Rain 3.00mm precipitation
Nori Vertical Visibility of 0ft.
Presiune 1004
Schimbă No Significant change. Runway 29: Wet or puddles, with <1mm, friction coefficient 0.50.
Brut UWKD 280900Z 23005MPS 170V260 9999 -SHRA BKN050CB 11/09 Q1004 R29/2/0050 NOSIG RMK QFE742/0989

MVFR

12°C / 8°C

[Mai mult]
Vânt 230º 14kt Gust 23kt
Vizibilitate >10km
Vremea Light Showers Rain 3.00mm precipitation
Nori Vertical Visibility of 0ft.
Presiune 1004
Schimbă No Significant change
Brut UWKD 280830Z 23007G12MPS 9999 -SHRA BKN030CB 12/08 Q1004 R29/CLRD70 NOSIG RMK QFE742/0989

MVFR

13°C / 8°C

[Mai mult]
Vânt 220º 12kt Gust 21kt
Vizibilitate >10km
Vremea -
Nori Broken Clouds 2400ft
Presiune 1004
Schimbă No Significant change
Brut UWKD 280800Z 22006G11MPS 9999 BKN024 13/08 Q1004 R29/70D NOSIG RMK QFE742/0989

VFR

14°C / 9°C

[Mai mult]
Vânt 220º variable 170º to 240º 14kt
Vizibilitate >10km
Vremea -
Nori Broken Clouds 3300ft
Presiune 1004
Schimbă No Significant change
Brut UWKD 280730Z 22007MPS 170V240 9999 BKN033 14/09 Q1004 R29/70D NOSIG RMK QFE742/0989

MVFR

14°C / 9°C

[Mai mult]
Vânt 220º 12kt
Vizibilitate >10km
Vremea -
Nori Broken Clouds 2000ft
Presiune 1003
Schimbă No Significant change
Brut UWKD 280700Z 22006MPS 9999 BKN020 14/09 Q1003 R29/CLRD70 NOSIG RMK QFE741/0989

TAF pentru 55.61°N 49.28°E (UWKD)

From till


Maximum Temperature 16ºC on . Minimum Temperature 9ºC on .
From till Wind 210º 10kt. Gust 23kt. Visibility 10km or more. Broken Clouds 1600ft.
Temporarly from till Visibility 6000m. Light Showers Rain . Scattered Clouds 700ft. Broken Clouds 2000ft.
Becoming from till Wind 230º 14kt. Gust 27kt. Visibility 10km or more. Broken Clouds 1600ft.

Brut: TAF UWKD 281655Z 2818/2918 21005G12MPS 9999 BKN016 TX16/2912Z TN09/2901Z TEMPO 2818/2821 6000 -SHRA SCT007 BKN020CB BECMG 2906/2908 23007G14MPS

Radar și nowcast de precipitații pentru 55.61°N 49.28°E

Burniță
Ușoară
Moderat
Greu
Foarte greu
Grindină

Markerul de locație este plasat în 55.61°N 49.28°E. Această animație arată radarul de precipitații pentru ultima oră, precum și o 1h prognoză. Ploaia sau ninsoarea slabă ar putea fi invizibilă pentru radar. Intensitatea precipitațiilor este codificată prin culori, de la albastru deschis la portocaliu.

Imagini satelitare și ploaie pentru 55.61°N 49.28°E

Markerul cu locaţia este poziţionat pe 55.61°N 49.28°E. [Mai mult]

Imaginea satelitară în timp real combină lumina vizibilă din timpul zilei cu radiația cu infraroșu din timpul nopții. Pe timp de noapte, imaginea nu este întunecată, deoarece radiația cu infraroșu poate detecta diferențele de temperatură. Din păcate, norii joși și ceața sunt greu de recunoscut față de temperatura de la sol, din această cauză putând fi invizibili pe timp de noapte. Imaginile satelitare Meteosat pentru Europa sunt actualizate în timp real din 5 în 5 minute. Imaginile GOES-16/GOES-17 (America de Nord și de Sud) și Himawari (Asia) sunt actualizate din 10 în 10 minute.

Toate drepturile rezervate 2022 EUMETSAT / meteoblue. / Toate drepturile rezervate 2022 meteoblue

Mergi sus